Dover, Michigan
Current Conditions -  °F | °C
As of 4:53 AM on Saturday 29 Nov 2014 (Local Time) from KARB Reporting Station
Unknown Precip Unknown Precip  
Wind Chill: 24°   Ceiling: 7500
Heat Index: 30°   Visibility: 9mi
Dew Point: 23°   Wind: 6mph
Humidity: 75%   Direction: 150°SSE
Pressure: 29.98"   Gusts: NA
Location:  42.3528°N, 83.8974°W
Report Text: KARB 290953Z AUTO 15005KT 9SM UP OVC075 M01/M05 A2998 RMK AO2 UPB15SNB0858E15 SLP161 P0002 T10111050
Loading
Personal Weather Stations






























Interactive Weather Map New forecast layout! Learn more

10-Day Weather Forecast

Advertisements
Track Severe Weather on mobile